Time;durP1;ratioP1;P1;durP2;ratioP2;P2;SDS_P1;SDS_P2;PMS_P1;PMS_P2;Temp;Humidity;BMP_temperature;BMP_pressure;BME280_temperature;BME280_humidity;BME280_pressure;Samples;Min_cycle;Max_cycle;Signal;HPM_P1;HPM_P2
2020/12/31 00:01:26;;;;;;;71.45;42.88;;;;;;;;;;5093943;28;20055;-66
2020/12/31 00:03:52;;;;;;;73.15;42.90;;;;;;;;;;5093860;28;20520;-65
2020/12/31 00:06:18;;;;;;;66.25;42.35;;;;;;;;;;5093639;28;20020;-65
2020/12/31 00:08:44;;;;;;;71.07;43.67;;;;;;;;;;5093885;28;20023;-67
2020/12/31 00:11:11;;;;;;;76.05;45.15;;;;;;;;;;5092555;28;20118;-67
2020/12/31 00:13:37;;;;;;;67.93;43.90;;;;;;;;;;5093473;28;20457;-66
2020/12/31 00:16:04;;;;;;;69.57;42.88;;;;;;;;;;5094061;28;20021;-69
2020/12/31 00:18:30;;;;;;;70.07;43.92;;;;;;;;;;5093195;28;20074;-69
2020/12/31 00:20:56;;;;;;;69.50;46.88;;;;;;;;;;5093414;28;20453;-66
2020/12/31 00:23:22;;;;;;;69.65;44.83;;;;;;;;;;5094013;28;20028;-67
2020/12/31 00:25:49;;;;;;;66.60;43.17;;;;;;;;;;5093372;28;20113;-66
2020/12/31 00:28:16;;;;;;;58.72;38.75;;;;;;;;;;5092725;28;20356;-67
2020/12/31 00:30:42;;;;;;;58.53;38.95;;;;;;;;;;5093438;28;20050;-66
2020/12/31 00:33:09;;;;;;;62.53;39.58;;;;;;;;;;5093660;28;20441;-65
2020/12/31 00:35:35;;;;;;;61.60;40.28;;;;;;;;;;5093652;28;20642;-67
2020/12/31 00:38:02;;;;;;;67.63;40.75;;;;;;;;;;5093862;28;20048;-65
2020/12/31 00:40:28;;;;;;;65.90;40.08;;;;;;;;;;5093427;28;20035;-67
2020/12/31 00:42:54;;;;;;;60.13;39.25;;;;;;;;;;5093770;28;20024;-67
2020/12/31 00:45:20;;;;;;;63.33;39.35;;;;;;;;;;5093540;28;20016;-66
2020/12/31 00:47:46;;;;;;;57.22;34.80;;;;;;;;;;5093476;28;20023;-67
2020/12/31 00:50:12;;;;;;;55.58;34.20;;;;;;;;;;5092178;28;20027;-68
2020/12/31 00:52:38;;;;;;;63.85;38.97;;;;;;;;;;5093386;28;20028;-67
2020/12/31 00:55:04;;;;;;;71.32;39.00;;;;;;;;;;5093162;28;20020;-67
2020/12/31 00:57:30;;;;;;;64.45;39.50;;;;;;;;;;5093649;28;20027;-68
2020/12/31 00:59:56;;;;;;;66.72;40.15;;;;;;;;;;5093360;28;20348;-67
2020/12/31 01:02:23;;;;;;;66.75;41.33;;;;;;;;;;5093392;28;20030;-68
2020/12/31 01:04:49;;;;;;;68.07;38.30;;;;;;;;;;5093333;28;20016;-68
2020/12/31 01:07:16;;;;;;;65.38;37.95;;;;;;;;;;5093667;28;20031;-67
2020/12/31 01:09:42;;;;;;;70.57;40.35;;;;;;;;;;5096666;28;20087;-67
2020/12/31 01:12:08;;;;;;;65.35;40.05;;;;;;;;;;5096800;28;20024;-67
2020/12/31 01:14:34;;;;;;;66.13;39.72;;;;;;;;;;5095200;28;20023;-68
2020/12/31 01:17:00;;;;;;;59.33;36.38;;;;;;;;;;5096784;28;20012;-69
2020/12/31 01:19:27;;;;;;;74.20;41.65;;;;;;;;;;5096778;28;20016;-67
2020/12/31 01:21:53;;;;;;;74.65;43.08;;;;;;;;;;5096389;28;20058;-68
2020/12/31 01:24:19;;;;;;;74.60;41.00;;;;;;;;;;5096900;28;20023;-66
2020/12/31 01:26:45;;;;;;;78.25;45.65;;;;;;;;;;5096937;28;20023;-68
2020/12/31 01:29:11;;;;;;;81.07;45.88;;;;;;;;;;5096339;28;20023;-68
2020/12/31 01:31:37;;;;;;;78.80;45.00;;;;;;;;;;5096223;28;20072;-68
2020/12/31 01:34:05;;;;;;;68.05;41.72;;;;;;;;;;5096114;28;20107;-66
2020/12/31 01:36:32;;;;;;;83.28;46.30;;;;;;;;;;5094819;28;20023;-68
2020/12/31 01:38:59;;;;;;;113.43;59.35;;;;;;;;;;5096375;28;20031;-66
2020/12/31 01:41:26;;;;;;;104.15;58.67;;;;;;;;;;5096317;28;20020;-68
2020/12/31 01:44:02;;;;;;;107.63;59.70;;;;;;;;;;5095996;28;20453;-67
2020/12/31 01:46:31;;;;;;;100.47;57.27;;;;;;;;;;5096803;28;20110;-67
2020/12/31 01:48:57;;;;;;;97.57;59.03;;;;;;;;;;5096135;28;20717;-68
2020/12/31 01:51:23;;;;;;;91.63;50.75;;;;;;;;;;5095829;28;20024;-66
2020/12/31 01:53:56;;;;;;;80.15;48.35;;;;;;;;;;5095752;28;20016;-67
2020/12/31 01:56:23;;;;;;;93.43;54.47;;;;;;;;;;5096171;28;20025;-67
2020/12/31 01:58:49;;;;;;;88.55;51.10;;;;;;;;;;5095416;28;20027;-67
2020/12/31 02:01:15;;;;;;;82.57;50.72;;;;;;;;;;5095951;28;20020;-67
2020/12/31 02:03:41;;;;;;;83.65;48.85;;;;;;;;;;5095582;28;20028;-68
2020/12/31 02:06:07;;;;;;;78.75;44.92;;;;;;;;;;5095839;28;20020;-67
2020/12/31 02:08:34;;;;;;;62.88;37.67;;;;;;;;;;5095796;28;20064;-67
2020/12/31 02:11:00;;;;;;;59.85;40.13;;;;;;;;;;5095428;28;20024;-66
2020/12/31 02:13:26;;;;;;;57.53;37.13;;;;;;;;;;5095743;28;20521;-68
2020/12/31 02:15:52;;;;;;;59.42;38.38;;;;;;;;;;5095644;28;20031;-68
2020/12/31 02:18:18;;;;;;;63.78;37.17;;;;;;;;;;5095097;28;20020;-68
2020/12/31 02:20:44;;;;;;;57.20;35.28;;;;;;;;;;5095251;28;20476;-67
2020/12/31 02:23:10;;;;;;;55.40;34.47;;;;;;;;;;5095784;28;20028;-67
2020/12/31 02:25:37;;;;;;;53.95;36.38;;;;;;;;;;5095312;28;20012;-67
2020/12/31 02:28:03;;;;;;;55.63;35.53;;;;;;;;;;5095446;28;20449;-69
2020/12/31 02:30:29;;;;;;;56.30;36.22;;;;;;;;;;5095003;28;20123;-67
2020/12/31 02:32:55;;;;;;;54.80;33.42;;;;;;;;;;5094801;28;20031;-68
2020/12/31 02:35:21;;;;;;;53.90;33.95;;;;;;;;;;5095291;28;20095;-68
2020/12/31 02:37:47;;;;;;;46.40;33.00;;;;;;;;;;5093974;28;20026;-67
2020/12/31 02:40:13;;;;;;;51.60;34.15;;;;;;;;;;5094968;28;20020;-68
2020/12/31 02:42:39;;;;;;;47.72;31.30;;;;;;;;;;5094862;28;20350;-67
2020/12/31 02:45:05;;;;;;;57.55;37.65;;;;;;;;;;5095248;28;20012;-66
2020/12/31 02:47:35;;;;;;;61.63;40.30;;;;;;;;;;5094466;28;20015;-67
2020/12/31 02:50:01;;;;;;;67.18;43.22;;;;;;;;;;5094974;28;20020;-65
2020/12/31 02:52:27;;;;;;;71.38;46.28;;;;;;;;;;5094595;28;20157;-67
2020/12/31 02:54:53;;;;;;;71.50;42.50;;;;;;;;;;5094933;28;20050;-67
2020/12/31 02:57:19;;;;;;;71.45;42.92;;;;;;;;;;5095090;28;20099;-67
2020/12/31 02:59:45;;;;;;;65.88;42.20;;;;;;;;;;5094262;28;20157;-66
2020/12/31 03:02:12;;;;;;;65.82;42.80;;;;;;;;;;5094478;28;20019;-68
2020/12/31 03:04:38;;;;;;;66.50;40.03;;;;;;;;;;5094574;28;20423;-66
2020/12/31 03:07:04;;;;;;;67.35;42.58;;;;;;;;;;5094596;28;20099;-66
2020/12/31 03:09:30;;;;;;;69.43;42.92;;;;;;;;;;5094627;28;20353;-68
2020/12/31 03:11:56;;;;;;;65.82;42.67;;;;;;;;;;5094769;28;20095;-67
2020/12/31 03:14:22;;;;;;;67.65;43.08;;;;;;;;;;5094020;28;20028;-67
2020/12/31 03:16:48;;;;;;;68.70;40.70;;;;;;;;;;5094782;28;20085;-68
2020/12/31 03:19:14;;;;;;;62.90;42.42;;;;;;;;;;5093206;28;20019;-68
2020/12/31 03:21:40;;;;;;;62.13;39.20;;;;;;;;;;5094129;28;20076;-68
2020/12/31 03:24:06;;;;;;;69.15;42.92;;;;;;;;;;5094411;28;20445;-67
2020/12/31 03:26:32;;;;;;;67.55;43.45;;;;;;;;;;5094463;28;20016;-67
2020/12/31 03:28:59;;;;;;;61.03;41.10;;;;;;;;;;5092750;28;20499;-67
2020/12/31 03:31:25;;;;;;;66.22;44.50;;;;;;;;;;5093062;28;20389;-66
2020/12/31 03:33:51;;;;;;;63.80;41.45;;;;;;;;;;5094082;28;20023;-68
2020/12/31 03:36:17;;;;;;;68.32;40.65;;;;;;;;;;5093936;28;20387;-66
2020/12/31 03:38:43;;;;;;;62.38;38.97;;;;;;;;;;5094762;28;20095;-66
2020/12/31 03:41:09;;;;;;;63.00;39.10;;;;;;;;;;5094152;28;20356;-67
2020/12/31 03:43:35;;;;;;;67.15;41.10;;;;;;;;;;5093534;28;20022;-68
2020/12/31 03:46:01;;;;;;;67.03;42.58;;;;;;;;;;5094371;28;20024;-67
2020/12/31 03:48:27;;;;;;;61.60;40.58;;;;;;;;;;5093770;28;20012;-67
2020/12/31 03:50:53;;;;;;;62.35;38.63;;;;;;;;;;5094317;28;20023;-68
2020/12/31 03:53:19;;;;;;;68.75;41.22;;;;;;;;;;5093631;28;20055;-67
2020/12/31 03:55:46;;;;;;;63.65;41.13;;;;;;;;;;5092917;28;20024;-66
2020/12/31 03:58:12;;;;;;;64.40;42.58;;;;;;;;;;5094253;28;20318;-66
2020/12/31 04:00:38;;;;;;;69.32;43.17;;;;;;;;;;5093938;28;20072;-67
2020/12/31 04:03:04;;;;;;;64.90;41.80;;;;;;;;;;5093633;28;20039;-67
2020/12/31 04:05:30;;;;;;;62.58;41.88;;;;;;;;;;5094137;28;20024;-67
2020/12/31 04:07:56;;;;;;;61.63;40.22;;;;;;;;;;5094187;28;20031;-67
2020/12/31 04:10:22;;;;;;;60.67;40.50;;;;;;;;;;5093516;28;20020;-66
2020/12/31 04:12:48;;;;;;;57.38;38.17;;;;;;;;;;5093837;28;20028;-67
2020/12/31 04:15:14;;;;;;;58.47;39.58;;;;;;;;;;5094048;28;20077;-68
2020/12/31 04:17:40;;;;;;;53.25;37.20;;;;;;;;;;5093735;28;20063;-68
2020/12/31 04:20:06;;;;;;;57.10;37.17;;;;;;;;;;5093768;28;20012;-68
2020/12/31 04:22:33;;;;;;;51.30;36.97;;;;;;;;;;5094003;28;20029;-67
2020/12/31 04:24:59;;;;;;;54.08;34.97;;;;;;;;;;5093623;28;20013;-67
2020/12/31 04:27:25;;;;;;;57.80;37.72;;;;;;;;;;5093710;28;20024;-67
2020/12/31 04:29:51;;;;;;;65.88;39.22;;;;;;;;;;5093145;28;20081;-67
2020/12/31 04:32:17;;;;;;;66.93;37.38;;;;;;;;;;5093069;28;20024;-66
2020/12/31 04:34:43;;;;;;;62.47;38.63;;;;;;;;;;5093917;28;20099;-69
2020/12/31 04:37:09;;;;;;;65.32;38.90;;;;;;;;;;5093612;28;20390;-68
2020/12/31 04:39:35;;;;;;;58.70;37.15;;;;;;;;;;5093509;28;20045;-68
2020/12/31 04:42:01;;;;;;;54.35;34.78;;;;;;;;;;5094876;28;20022;-68
2020/12/31 04:44:28;;;;;;;57.10;35.10;;;;;;;;;;5097135;28;20028;-68
2020/12/31 04:46:55;;;;;;;51.67;32.90;;;;;;;;;;5097678;28;20383;-68
2020/12/31 04:49:26;;;;;;;56.08;36.60;;;;;;;;;;5097320;28;20069;-69
2020/12/31 04:51:54;;;;;;;51.28;33.80;;;;;;;;;;5097005;28;20095;-70
2020/12/31 04:54:20;;;;;;;49.60;35.03;;;;;;;;;;5095849;28;20081;-68
2020/12/31 04:56:47;;;;;;;49.67;34.25;;;;;;;;;;5095916;28;20024;-67
2020/12/31 04:59:13;;;;;;;50.97;33.25;;;;;;;;;;5096570;28;20024;-68
2020/12/31 05:01:45;;;;;;;68.70;52.92;;;;;;;;;;5097019;28;20027;-66
2020/12/31 05:04:11;;;;;;;48.75;34.35;;;;;;;;;;5096759;28;20529;-68
2020/12/31 05:06:37;;;;;;;48.05;31.08;;;;;;;;;;5095450;28;20024;-67
2020/12/31 05:09:17;;;;;;;44.53;30.00;;;;;;;;;;5097014;28;20353;-67
2020/12/31 05:11:44;;;;;;;43.38;29.88;;;;;;;;;;5096647;28;20012;-66
2020/12/31 05:14:10;;;;;;;48.17;32.03;;;;;;;;;;5096614;28;20031;-68
2020/12/31 05:16:36;;;;;;;49.50;32.03;;;;;;;;;;5096821;28;20027;-68
2020/12/31 05:19:19;;;;;;;46.60;33.17;;;;;;;;;;5096737;28;20099;-68
2020/12/31 05:21:45;;;;;;;52.85;33.08;;;;;;;;;;5096488;28;20099;-66
2020/12/31 05:24:14;;;;;;;48.55;31.83;;;;;;;;;;5095379;28;20346;-67
2020/12/31 05:26:41;;;;;;;41.42;30.58;;;;;;;;;;5096364;28;20019;-70
2020/12/31 05:29:08;;;;;;;44.22;29.92;;;;;;;;;;5096886;28;20357;-68
2020/12/31 05:31:55;;;;;;;42.00;29.70;;;;;;;;;;5096184;28;20047;-68
2020/12/31 05:34:28;;;;;;;38.65;29.13;;;;;;;;;;5096062;28;20273;-69
2020/12/31 05:36:54;;;;;;;46.85;32.17;;;;;;;;;;5096453;28;20517;-66
2020/12/31 05:39:20;;;;;;;42.58;29.90;;;;;;;;;;5094822;28;20027;-68
2020/12/31 05:41:46;;;;;;;43.60;29.45;;;;;;;;;;5094988;28;20364;-67
2020/12/31 05:44:12;;;;;;;45.88;32.13;;;;;;;;;;5096300;28;20472;-66
2020/12/31 05:46:39;;;;;;;42.38;29.48;;;;;;;;;;5096250;28;20028;-68
2020/12/31 05:49:06;;;;;;;49.17;31.17;;;;;;;;;;5095691;28;20093;-68
2020/12/31 05:51:33;;;;;;;47.97;29.55;;;;;;;;;;5095900;28;20026;-67
2020/12/31 05:54:08;;;;;;;44.78;30.42;;;;;;;;;;5095211;28;20052;-68
2020/12/31 05:56:35;;;;;;;44.47;29.38;;;;;;;;;;5094465;28;20031;-67
2020/12/31 05:59:24;;;;;;;43.00;29.42;;;;;;;;;;5095740;28;20024;-69
2020/12/31 06:01:57;;;;;;;40.53;28.35;;;;;;;;;;5090028;28;20032;-68
2020/12/31 06:04:29;;;;;;;43.53;28.60;;;;;;;;;;5095766;28;20047;-68
2020/12/31 06:06:59;;;;;;;42.35;28.58;;;;;;;;;;5096398;28;20043;-69
2020/12/31 06:09:28;;;;;;;49.03;31.80;;;;;;;;;;5093905;28;20065;-67
2020/12/31 06:11:59;;;;;;;47.45;31.85;;;;;;;;;;5095825;28;20360;-68
2020/12/31 06:14:29;;;;;;;45.75;31.92;;;;;;;;;;5095743;28;20024;-70
2020/12/31 06:16:56;;;;;;;48.90;32.60;;;;;;;;;;5095372;28;20020;-67
2020/12/31 06:19:32;;;;;;;42.40;29.55;;;;;;;;;;5095356;28;20368;-66
2020/12/31 06:22:24;;;;;;;46.97;30.67;;;;;;;;;;5095533;28;20020;-69
2020/12/31 06:24:58;;;;;;;44.72;29.23;;;;;;;;;;5093679;28;20342;-69
2020/12/31 06:27:31;;;;;;;42.55;28.65;;;;;;;;;;5095563;28;20024;-68
2020/12/31 06:29:59;;;;;;;45.50;30.13;;;;;;;;;;5095224;28;20354;-67
2020/12/31 06:32:27;;;;;;;48.15;28.38;;;;;;;;;;5095304;28;20024;-69
2020/12/31 06:35:02;;;;;;;46.75;29.02;;;;;;;;;;5095285;28;20024;-69
2020/12/31 06:37:29;;;;;;;46.85;28.60;;;;;;;;;;5093728;28;20464;-68
2020/12/31 06:40:15;;;;;;;43.08;27.02;;;;;;;;;;5095574;28;20360;-69
2020/12/31 06:43:00;;;;;;;44.38;28.23;;;;;;;;;;5095279;28;20379;-68
2020/12/31 06:45:33;;;;;;;42.15;29.60;;;;;;;;;;5094820;28;20020;-67
2020/12/31 06:47:59;;;;;;;42.83;25.13;;;;;;;;;;5095031;28;20031;-69
2020/12/31 06:50:43;;;;;;;38.95;27.50;;;;;;;;;;5094854;28;20016;-73
2020/12/31 06:53:28;;;;;;;36.08;27.48;;;;;;;;;;5094592;28;20544;-69
2020/12/31 06:55:54;;;;;;;35.60;23.80;;;;;;;;;;5094655;28;20028;-69
2020/12/31 06:58:21;;;;;;;36.22;24.42;;;;;;;;;;5094541;28;20043;-70
2020/12/31 07:00:47;;;;;;;35.00;25.25;;;;;;;;;;5094594;28;20069;-71
2020/12/31 07:03:13;;;;;;;41.78;26.48;;;;;;;;;;5093513;28;20418;-70
2020/12/31 07:05:39;;;;;;;39.70;24.77;;;;;;;;;;5094130;28;20020;-68
2020/12/31 07:08:05;;;;;;;39.03;25.02;;;;;;;;;;5094694;28;20039;-68
2020/12/31 07:10:47;;;;;;;31.60;22.58;;;;;;;;;;5094692;28;20024;-70
2020/12/31 07:13:30;;;;;;;31.05;22.45;;;;;;;;;;5092988;28;20024;-70
2020/12/31 07:15:56;;;;;;;40.28;26.02;;;;;;;;;;5094113;28;20016;-75
2020/12/31 07:18:23;;;;;;;39.53;26.35;;;;;;;;;;5094890;28;20020;-75
2020/12/31 07:20:50;;;;;;;43.85;27.92;;;;;;;;;;5093077;28;20016;-77
2020/12/31 07:23:16;;;;;;;60.13;32.35;;;;;;;;;;5093220;28;20020;-77
2020/12/31 07:25:46;;;;;;;55.67;31.35;;;;;;;;;;5093884;28;20020;-77
2020/12/31 07:28:18;;;;;;;72.40;37.55;;;;;;;;;;5094113;28;20350;-78
2020/12/31 07:30:51;;;;;;;62.10;35.22;;;;;;;;;;5094443;28;20449;-79
2020/12/31 07:33:34;;;;;;;57.72;32.03;;;;;;;;;;5092722;28;20030;-77
2020/12/31 07:36:12;;;;;;;49.13;27.80;;;;;;;;;;5094099;28;20097;-80
2020/12/31 07:38:38;;;;;;;58.33;32.15;;;;;;;;;;5093939;28;20354;-75
2020/12/31 07:41:10;;;;;;;63.13;34.83;;;;;;;;;;5094223;28;20027;-75
2020/12/31 07:43:36;;;;;;;64.97;38.10;;;;;;;;;;5094551;28;20044;-78
2020/12/31 07:46:03;;;;;;;83.50;44.00;;;;;;;;;;5094425;28;20117;-78
2020/12/31 07:48:29;;;;;;;56.22;35.90;;;;;;;;;;5094060;28;20024;-75
2020/12/31 07:50:57;;;;;;;67.47;43.08;;;;;;;;;;5093253;28;20509;-73
2020/12/31 07:53:22;;;;;;;;;;;;;;;;;;5094372;28;20024;-73
2020/12/31 07:55:49;;;;;;;66.00;39.33;;;;;;;;;;5094037;28;19908;-71
2020/12/31 07:58:25;;;;;;;75.18;41.08;;;;;;;;;;5094015;28;20024;-72
2020/12/31 08:01:01;;;;;;;61.17;35.75;;;;;;;;;;5093938;28;20057;-70
2020/12/31 08:03:27;;;;;;;69.45;41.53;;;;;;;;;;5093955;28;20020;-70
2020/12/31 08:05:57;;;;;;;70.20;38.55;;;;;;;;;;5092667;28;20027;-70
2020/12/31 08:08:23;;;;;;;58.70;36.95;;;;;;;;;;5092762;28;20453;-70
2020/12/31 08:10:49;;;;;;;60.10;36.17;;;;;;;;;;5093608;28;20020;-72
2020/12/31 08:13:19;;;;;;;51.30;30.90;;;;;;;;;;5092525;28;20024;-71
2020/12/31 08:15:52;;;;;;;50.50;29.83;;;;;;;;;;5093256;28;20032;-70
2020/12/31 08:18:18;;;;;;;51.40;26.95;;;;;;;;;;5096241;28;20023;-71
2020/12/31 08:20:46;;;;;;;92.07;45.90;;;;;;;;;;5096726;28;20360;-70
2020/12/31 08:23:38;;;;;;;46.08;30.77;;;;;;;;;;5096547;28;20426;-72
2020/12/31 08:26:08;;;;;;;43.70;27.48;;;;;;;;;;5093378;28;20027;-71
2020/12/31 08:28:36;;;;;;;52.40;32.33;;;;;;;;;;5097843;28;20023;-70
2020/12/31 08:31:10;;;;;;;61.42;34.47;;;;;;;;;;5096281;28;20131;-74
2020/12/31 08:33:37;;;;;;;39.88;27.25;;;;;;;;;;5097044;28;20031;-73
2020/12/31 08:36:04;;;;;;;55.33;33.63;;;;;;;;;;5096277;28;20031;-72
2020/12/31 08:38:37;;;;;;;59.33;35.65;;;;;;;;;;5096262;28;20032;-71
2020/12/31 08:41:06;;;;;;;42.58;27.63;;;;;;;;;;5098568;28;20012;-71
2020/12/31 08:43:32;;;;;;;54.40;38.38;;;;;;;;;;5097184;28;20022;-72
2020/12/31 08:45:59;;;;;;;50.88;32.60;;;;;;;;;;5098268;28;20016;-68
2020/12/31 08:48:26;;;;;;;54.70;33.90;;;;;;;;;;5097198;28;20360;-74
2020/12/31 08:50:59;;;;;;;60.75;37.22;;;;;;;;;;5095715;28;20023;-73
2020/12/31 08:53:26;;;;;;;71.85;40.63;;;;;;;;;;5097477;28;20020;-70
2020/12/31 08:55:55;;;;;;;47.13;32.22;;;;;;;;;;5096968;28;20035;-71
2020/12/31 08:58:21;;;;;;;84.10;45.97;;;;;;;;;;5095772;28;20027;-72
2020/12/31 09:00:47;;;;;;;77.18;42.13;;;;;;;;;;5095835;28;20016;-71
2020/12/31 09:03:19;;;;;;;36.88;26.63;;;;;;;;;;5097081;28;20334;-72
2020/12/31 09:05:53;;;;;;;53.20;31.73;;;;;;;;;;5096867;28;20016;-73
2020/12/31 09:08:19;;;;;;;55.42;31.15;;;;;;;;;;5097391;28;20013;-71
2020/12/31 09:10:45;;;;;;;52.08;31.67;;;;;;;;;;5095476;28;20096;-73
2020/12/31 09:13:18;;;;;;;48.75;27.83;;;;;;;;;;5096850;28;20034;-73
2020/12/31 09:15:44;;;;;;;76.63;40.13;;;;;;;;;;5097153;28;20483;-71
2020/12/31 09:18:17;;;;;;;44.08;27.60;;;;;;;;;;5095279;28;20019;-71
2020/12/31 09:20:44;;;;;;;56.67;34.05;;;;;;;;;;5096764;28;20099;-72
2020/12/31 09:23:11;;;;;;;47.33;27.55;;;;;;;;;;5096452;28;20095;-69
2020/12/31 09:25:49;;;;;;;37.88;24.63;;;;;;;;;;5096664;28;20016;-72
2020/12/31 09:28:16;;;;;;;39.10;26.25;;;;;;;;;;5094141;28;20477;-71
2020/12/31 09:30:42;;;;;;;45.70;28.88;;;;;;;;;;5096646;28;20040;-71
2020/12/31 09:33:08;;;;;;;43.30;30.60;;;;;;;;;;5096200;28;20024;-71
2020/12/31 09:35:34;;;;;;;59.42;35.83;;;;;;;;;;5095155;28;20046;-72
2020/12/31 09:38:00;;;;;;;60.15;36.83;;;;;;;;;;5096130;28;20085;-72
2020/12/31 09:40:26;;;;;;;55.28;34.20;;;;;;;;;;5094874;28;20406;-72
2020/12/31 09:42:53;;;;;;;59.50;35.13;;;;;;;;;;5096641;28;20081;-69
2020/12/31 09:45:19;;;;;;;42.13;26.80;;;;;;;;;;5096533;28;20111;-71
2020/12/31 09:47:45;;;;;;;48.35;28.10;;;;;;;;;;5095982;28;20020;-73
2020/12/31 09:50:11;;;;;;;50.15;30.45;;;;;;;;;;5095093;28;20043;-74
2020/12/31 09:52:41;;;;;;;43.40;30.63;;;;;;;;;;5094499;28;20453;-74
2020/12/31 09:55:08;;;;;;;42.70;28.80;;;;;;;;;;5096142;28;20076;-72
2020/12/31 09:57:34;;;;;;;43.10;28.30;;;;;;;;;;5096120;28;20027;-71
2020/12/31 10:00:01;;;;;;;44.57;26.07;;;;;;;;;;5094498;28;20024;-73
2020/12/31 10:02:27;;;;;;;44.47;29.43;;;;;;;;;;5095344;28;20471;-73
2020/12/31 10:04:53;;;;;;;52.10;31.90;;;;;;;;;;5095106;28;20337;-72
2020/12/31 10:07:19;;;;;;;53.30;32.05;;;;;;;;;;5094322;28;20023;-73
2020/12/31 10:09:45;;;;;;;55.42;34.05;;;;;;;;;;5095986;28;20066;-75
2020/12/31 10:12:12;;;;;;;57.67;31.85;;;;;;;;;;5094483;28;20342;-74
2020/12/31 10:14:39;;;;;;;56.13;31.92;;;;;;;;;;5094300;28;20341;-72
2020/12/31 10:17:05;;;;;;;51.13;27.98;;;;;;;;;;5095440;28;20037;-74
2020/12/31 10:19:31;;;;;;;49.63;30.17;;;;;;;;;;5094373;28;20012;-75
2020/12/31 10:21:57;;;;;;;35.50;24.25;;;;;;;;;;5093752;28;20107;-75
2020/12/31 10:24:23;;;;;;;44.75;28.77;;;;;;;;;;5094446;28;20513;-73
2020/12/31 10:26:49;;;;;;;63.15;32.17;;;;;;;;;;5094256;28;20039;-74
2020/12/31 10:29:16;;;;;;;50.38;30.98;;;;;;;;;;5093630;28;20020;-73
2020/12/31 10:31:42;;;;;;;59.15;35.13;;;;;;;;;;5093947;28;20039;-74
2020/12/31 10:34:12;;;;;;;66.35;38.15;;;;;;;;;;5095273;28;20028;-73
2020/12/31 10:36:38;;;;;;;75.85;47.30;;;;;;;;;;5094716;28;20477;-73
2020/12/31 10:39:06;;;;;;;50.65;35.38;;;;;;;;;;5093817;28;20441;-72
2020/12/31 10:41:32;;;;;;;;;;;;;;;;;;5095221;28;20031;-72
2020/12/31 10:43:58;;;;;;;58.45;37.75;;;;;;;;;;5095198;28;19900;-72
2020/12/31 10:46:25;;;;;;;61.75;39.67;;;;;;;;;;5095158;28;20016;-72
2020/12/31 10:48:52;;;;;;;59.83;39.55;;;;;;;;;;5094828;28;20024;-72
2020/12/31 10:51:18;;;;;;;58.80;40.15;;;;;;;;;;5095030;28;20016;-72
2020/12/31 10:53:44;;;;;;;80.93;43.88;;;;;;;;;;5093622;28;20107;-73
2020/12/31 10:56:10;;;;;;;77.25;46.35;;;;;;;;;;5093121;28;20114;-73
2020/12/31 10:58:37;;;;;;;62.45;36.30;;;;;;;;;;5093622;28;20052;-73
2020/12/31 11:01:04;;;;;;;91.27;53.63;;;;;;;;;;5093600;28;20099;-73
2020/12/31 11:03:30;;;;;;;77.82;48.85;;;;;;;;;;5094930;28;20027;-74
2020/12/31 11:05:57;;;;;;;80.68;49.47;;;;;;;;;;5094049;28;20031;-73
2020/12/31 11:08:23;;;;;;;66.90;41.70;;;;;;;;;;5095044;28;20024;-72
2020/12/31 11:10:49;;;;;;;70.55;45.15;;;;;;;;;;5093300;28;20020;-72
2020/12/31 11:13:16;;;;;;;84.38;46.88;;;;;;;;;;5093703;28;20024;-73
2020/12/31 11:15:42;;;;;;;52.42;33.58;;;;;;;;;;5094328;28;20365;-73
2020/12/31 11:18:09;;;;;;;53.83;37.00;;;;;;;;;;5093973;28;20423;-72
2020/12/31 11:20:35;;;;;;;64.68;42.33;;;;;;;;;;5093242;28;20016;-73
2020/12/31 11:23:01;;;;;;;47.28;32.67;;;;;;;;;;5093934;28;20112;-72
2020/12/31 11:25:27;;;;;;;57.58;35.42;;;;;;;;;;5092867;28;20016;-71
2020/12/31 11:27:53;;;;;;;58.35;35.85;;;;;;;;;;5093122;28;20110;-71
2020/12/31 11:30:19;;;;;;;55.85;35.85;;;;;;;;;;5092749;28;20040;-72
2020/12/31 11:32:45;;;;;;;69.57;41.78;;;;;;;;;;5092649;28;20019;-72
2020/12/31 11:35:11;;;;;;;63.63;41.35;;;;;;;;;;5094290;28;20024;-74
2020/12/31 11:37:38;;;;;;;61.67;36.47;;;;;;;;;;5093790;28;20016;-73
2020/12/31 11:40:05;;;;;;;71.03;43.03;;;;;;;;;;5093794;28;20020;-74
2020/12/31 11:42:34;;;;;;;54.72;36.53;;;;;;;;;;5094528;28;20041;-75
2020/12/31 11:45:01;;;;;;;57.60;35.80;;;;;;;;;;5092723;28;20031;-71
2020/12/31 11:47:27;;;;;;;63.83;38.65;;;;;;;;;;5094158;28;20031;-71
2020/12/31 11:49:53;;;;;;;63.42;39.15;;;;;;;;;;5094365;28;20023;-72
2020/12/31 11:52:19;;;;;;;53.03;33.08;;;;;;;;;;5092055;28;20016;-72
2020/12/31 11:54:46;;;;;;;44.50;29.13;;;;;;;;;;5094184;28;20035;-73
2020/12/31 11:57:12;;;;;;;60.22;35.55;;;;;;;;;;5092719;28;20016;-72
2020/12/31 11:59:40;;;;;;;55.28;31.73;;;;;;;;;;5092447;28;20020;-72
2020/12/31 12:02:07;;;;;;;61.33;31.98;;;;;;;;;;5093513;28;20020;-72
2020/12/31 12:04:33;;;;;;;71.38;38.63;;;;;;;;;;5092643;28;20020;-71
2020/12/31 12:06:59;;;;;;;58.22;32.22;;;;;;;;;;5093731;28;20050;-72
2020/12/31 12:09:25;;;;;;;55.28;33.00;;;;;;;;;;5093915;28;20059;-71
2020/12/31 12:11:51;;;;;;;82.88;43.60;;;;;;;;;;5092302;28;20111;-72
2020/12/31 12:14:18;;;;;;;61.83;33.42;;;;;;;;;;5093566;28;20027;-71
2020/12/31 12:16:48;;;;;;;42.63;25.73;;;;;;;;;;5093896;28;20015;-72
2020/12/31 12:19:14;;;;;;;44.03;27.20;;;;;;;;;;5092493;28;20027;-71
2020/12/31 12:21:40;;;;;;;62.08;33.72;;;;;;;;;;5093265;28;20048;-73
2020/12/31 12:24:06;;;;;;;44.75;27.40;;;;;;;;;;5092447;28;20028;-71
2020/12/31 12:26:36;;;;;;;43.70;27.38;;;;;;;;;;5093451;28;20016;-72
2020/12/31 12:29:03;;;;;;;52.00;28.90;;;;;;;;;;5093761;28;20095;-71
2020/12/31 12:31:36;;;;;;;55.17;28.70;;;;;;;;;;5092848;28;20505;-71
2020/12/31 12:34:02;;;;;;;67.72;33.50;;;;;;;;;;5092071;28;20480;-72
2020/12/31 12:36:28;;;;;;;51.55;26.05;;;;;;;;;;5092412;28;20042;-72
2020/12/31 12:38:55;;;;;;;69.05;34.15;;;;;;;;;;5093196;28;20341;-71
2020/12/31 12:41:21;;;;;;;69.55;36.08;;;;;;;;;;5092025;28;20012;-72
2020/12/31 12:43:47;;;;;;;73.00;37.28;;;;;;;;;;5093260;28;20415;-72
2020/12/31 12:46:14;;;;;;;62.45;34.97;;;;;;;;;;5094110;28;20016;-71
2020/12/31 12:48:40;;;;;;;61.95;34.25;;;;;;;;;;5092364;28;20090;-72
2020/12/31 12:51:06;;;;;;;52.38;31.15;;;;;;;;;;5093523;28;20020;-71
2020/12/31 12:53:32;;;;;;;46.33;27.65;;;;;;;;;;5093665;28;20024;-72
2020/12/31 12:55:58;;;;;;;65.93;38.08;;;;;;;;;;5091914;28;20028;-71
2020/12/31 12:58:25;;;;;;;72.15;42.00;;;;;;;;;;5092197;28;20069;-72
2020/12/31 13:00:51;;;;;;;110.47;60.60;;;;;;;;;;5093417;28;20044;-72
2020/12/31 13:03:17;;;;;;;159.52;87.65;;;;;;;;;;5093493;28;20031;-72
2020/12/31 13:05:43;;;;;;;145.40;81.57;;;;;;;;;;5097053;28;20453;-73
2020/12/31 13:08:09;;;;;;;133.73;74.03;;;;;;;;;;5095708;28;20472;-72
2020/12/31 13:10:35;;;;;;;169.55;98.07;;;;;;;;;;5095386;28;20020;-72
2020/12/31 13:13:02;;;;;;;215.15;121.82;;;;;;;;;;5095301;28;20020;-71
2020/12/31 13:15:28;;;;;;;74.45;45.40;;;;;;;;;;5096220;28;20107;-73
2020/12/31 13:17:54;;;;;;;166.20;95.80;;;;;;;;;;5097047;28;20065;-71
2020/12/31 13:20:22;;;;;;;186.40;102.05;;;;;;;;;;5096815;28;20051;-72
2020/12/31 13:22:49;;;;;;;191.52;109.30;;;;;;;;;;5095080;28;20027;-71
2020/12/31 13:25:15;;;;;;;297.77;174.93;;;;;;;;;;5095535;28;20415;-71
2020/12/31 13:27:42;;;;;;;161.70;91.97;;;;;;;;;;5096873;28;20412;-72
2020/12/31 13:30:08;;;;;;;146.75;85.28;;;;;;;;;;5094717;28;20040;-71
2020/12/31 13:32:35;;;;;;;102.20;59.38;;;;;;;;;;5096274;28;20028;-71
2020/12/31 13:35:01;;;;;;;149.02;94.47;;;;;;;;;;5095288;28;20016;-73
2020/12/31 13:37:27;;;;;;;78.85;48.40;;;;;;;;;;5094917;28;20452;-72
2020/12/31 13:39:53;;;;;;;123.45;75.25;;;;;;;;;;5096154;28;20407;-73
2020/12/31 13:42:19;;;;;;;91.45;51.35;;;;;;;;;;5096420;28;20463;-74
2020/12/31 13:44:45;;;;;;;109.70;64.90;;;;;;;;;;5095965;28;20020;-74
2020/12/31 13:47:12;;;;;;;292.63;178.27;;;;;;;;;;5095580;28;20345;-73
2020/12/31 13:49:39;;;;;;;90.07;53.28;;;;;;;;;;5095487;28;20394;-72
2020/12/31 13:52:05;;;;;;;79.40;48.03;;;;;;;;;;5094665;28;20082;-72
2020/12/31 13:54:31;;;;;;;75.00;45.30;;;;;;;;;;5094814;28;20019;-72
2020/12/31 13:56:57;;;;;;;60.88;40.92;;;;;;;;;;5094872;28;20020;-71
2020/12/31 13:59:24;;;;;;;76.72;48.08;;;;;;;;;;5094626;28;20016;-76
2020/12/31 14:01:54;;;;;;;68.97;44.53;;;;;;;;;;5094827;28;20015;-71
2020/12/31 14:04:23;;;;;;;68.80;40.20;;;;;;;;;;5096072;28;20241;-75
2020/12/31 14:06:50;;;;;;;59.28;37.08;;;;;;;;;;5094708;28;20453;-74
2020/12/31 14:09:16;;;;;;;63.50;38.33;;;;;;;;;;5095187;28;20020;-76
2020/12/31 14:11:42;;;;;;;61.45;36.83;;;;;;;;;;5095527;28;20797;-75
2020/12/31 14:14:08;;;;;;;62.53;36.20;;;;;;;;;;5095214;28;20024;-73
2020/12/31 14:16:36;;;;;;;53.58;34.13;;;;;;;;;;5095994;28;20055;-73
2020/12/31 14:19:02;;;;;;;;;;;;;;;;;;5096209;28;20016;-71